sensor_id;sensor_type;location;lat;lon;timestamp;temperature;humidity
19516;DHT22;9901;47.448;7.692;2022-12-07T00:01:34;4.10;99.90
19516;DHT22;9901;47.448;7.692;2022-12-07T00:04:02;4.10;99.90
19516;DHT22;9901;47.448;7.692;2022-12-07T00:06:41;4.10;99.90
19516;DHT22;9901;47.448;7.692;2022-12-07T00:09:10;4.10;99.90
19516;DHT22;9901;47.448;7.692;2022-12-07T00:11:37;4.10;99.90
19516;DHT22;9901;47.448;7.692;2022-12-07T00:14:06;4.10;99.90
19516;DHT22;9901;47.448;7.692;2022-12-07T00:16:32;4.00;99.90
19516;DHT22;9901;47.448;7.692;2022-12-07T00:18:58;4.10;99.90
19516;DHT22;9901;47.448;7.692;2022-12-07T00:21:29;4.10;99.90
19516;DHT22;9901;47.448;7.692;2022-12-07T00:23:57;4.10;99.90
19516;DHT22;9901;47.448;7.692;2022-12-07T00:26:28;4.10;99.90
19516;DHT22;9901;47.448;7.692;2022-12-07T00:28:59;4.10;99.90
19516;DHT22;9901;47.448;7.692;2022-12-07T00:31:28;4.10;99.90
19516;DHT22;9901;47.448;7.692;2022-12-07T00:33:55;4.10;99.90
19516;DHT22;9901;47.448;7.692;2022-12-07T00:36:23;4.00;99.90
19516;DHT22;9901;47.448;7.692;2022-12-07T00:38:49;4.00;99.90
19516;DHT22;9901;47.448;7.692;2022-12-07T00:41:23;4.00;99.90
19516;DHT22;9901;47.448;7.692;2022-12-07T00:43:49;3.90;99.90
19516;DHT22;9901;47.448;7.692;2022-12-07T00:46:16;3.90;99.90
19516;DHT22;9901;47.448;7.692;2022-12-07T00:48:43;3.80;99.90
19516;DHT22;9901;47.448;7.692;2022-12-07T00:51:10;3.90;99.90
19516;DHT22;9901;47.448;7.692;2022-12-07T00:53:37;3.80;99.90
19516;DHT22;9901;47.448;7.692;2022-12-07T00:56:11;3.80;99.90
19516;DHT22;9901;47.448;7.692;2022-12-07T00:58:37;3.90;99.90
19516;DHT22;9901;47.448;7.692;2022-12-07T01:01:05;3.70;99.90
19516;DHT22;9901;47.448;7.692;2022-12-07T01:03:31;3.80;99.90
19516;DHT22;9901;47.448;7.692;2022-12-07T01:05:57;3.80;99.90
19516;DHT22;9901;47.448;7.692;2022-12-07T01:08:24;3.80;99.90
19516;DHT22;9901;47.448;7.692;2022-12-07T01:10:58;3.90;99.90
19516;DHT22;9901;47.448;7.692;2022-12-07T01:13:27;3.80;99.90
19516;DHT22;9901;47.448;7.692;2022-12-07T01:15:59;3.80;99.90
19516;DHT22;9901;47.448;7.692;2022-12-07T01:18:27;3.80;99.90
19516;DHT22;9901;47.448;7.692;2022-12-07T01:21:00;3.80;99.90
19516;DHT22;9901;47.448;7.692;2022-12-07T01:23:26;3.80;99.90
19516;DHT22;9901;47.448;7.692;2022-12-07T01:25:56;3.80;99.90
19516;DHT22;9901;47.448;7.692;2022-12-07T01:28:22;3.80;99.90
19516;DHT22;9901;47.448;7.692;2022-12-07T01:31:09;3.80;99.90
19516;DHT22;9901;47.448;7.692;2022-12-07T01:33:41;3.80;99.90
19516;DHT22;9901;47.448;7.692;2022-12-07T01:38:38;3.90;99.90
19516;DHT22;9901;47.448;7.692;2022-12-07T01:41:04;3.80;99.90
19516;DHT22;9901;47.448;7.692;2022-12-07T01:43:32;3.80;99.90
19516;DHT22;9901;47.448;7.692;2022-12-07T01:45:58;3.70;99.90
19516;DHT22;9901;47.448;7.692;2022-12-07T01:48:30;3.80;99.90
19516;DHT22;9901;47.448;7.692;2022-12-07T01:51:02;3.80;99.90
19516;DHT22;9901;47.448;7.692;2022-12-07T01:53:30;3.80;99.90
19516;DHT22;9901;47.448;7.692;2022-12-07T01:55:56;3.70;99.90
19516;DHT22;9901;47.448;7.692;2022-12-07T01:58:23;3.70;99.90
19516;DHT22;9901;47.448;7.692;2022-12-07T02:00:49;3.70;99.90
19516;DHT22;9901;47.448;7.692;2022-12-07T02:03:30;3.80;99.90
19516;DHT22;9901;47.448;7.692;2022-12-07T02:05:57;3.80;99.90
19516;DHT22;9901;47.448;7.692;2022-12-07T02:08:24;3.80;99.90
19516;DHT22;9901;47.448;7.692;2022-12-07T02:10:50;3.80;99.90
19516;DHT22;9901;47.448;7.692;2022-12-07T02:13:22;3.80;99.90
19516;DHT22;9901;47.448;7.692;2022-12-07T02:24:56;3.80;99.90
19516;DHT22;9901;47.448;7.692;2022-12-07T02:30:00;3.80;99.90
19516;DHT22;9901;47.448;7.692;2022-12-07T02:32:51;3.80;99.90
19516;DHT22;9901;47.448;7.692;2022-12-07T02:35:30;3.80;99.90
19516;DHT22;9901;47.448;7.692;2022-12-07T02:40:47;3.70;99.90
19516;DHT22;9901;47.448;7.692;2022-12-07T02:43:28;3.70;99.90
19516;DHT22;9901;47.448;7.692;2022-12-07T02:46:04;3.70;99.90
19516;DHT22;9901;47.448;7.692;2022-12-07T02:48:32;3.60;99.90
19516;DHT22;9901;47.448;7.692;2022-12-07T02:50:59;3.60;99.90
19516;DHT22;9901;47.448;7.692;2022-12-07T02:53:39;3.50;99.90
19516;DHT22;9901;47.448;7.692;2022-12-07T03:07:01;3.60;99.90
19516;DHT22;9901;47.448;7.692;2022-12-07T03:09:45;3.60;99.90
19516;DHT22;9901;47.448;7.692;2022-12-07T03:12:27;3.60;99.90
19516;DHT22;9901;47.448;7.692;2022-12-07T03:15:18;3.60;99.90
19516;DHT22;9901;47.448;7.692;2022-12-07T03:17:46;3.60;99.90
19516;DHT22;9901;47.448;7.692;2022-12-07T03:20:18;3.50;99.90
19516;DHT22;9901;47.448;7.692;2022-12-07T03:22:47;3.60;99.90
19516;DHT22;9901;47.448;7.692;2022-12-07T03:25:15;3.50;99.90
19516;DHT22;9901;47.448;7.692;2022-12-07T03:27:54;3.50;99.90
19516;DHT22;9901;47.448;7.692;2022-12-07T03:30:29;3.50;99.90
19516;DHT22;9901;47.448;7.692;2022-12-07T03:33:20;3.50;99.90
19516;DHT22;9901;47.448;7.692;2022-12-07T03:36:11;3.60;99.90
19516;DHT22;9901;47.448;7.692;2022-12-07T03:38:52;3.60;99.90
19516;DHT22;9901;47.448;7.692;2022-12-07T03:41:27;3.70;99.90
19516;DHT22;9901;47.448;7.692;2022-12-07T03:43:54;3.60;99.90
19516;DHT22;9901;47.448;7.692;2022-12-07T03:46:30;3.60;99.90
19516;DHT22;9901;47.448;7.692;2022-12-07T03:52:00;3.60;99.90
19516;DHT22;9901;47.448;7.692;2022-12-07T03:54:43;3.60;99.90
19516;DHT22;9901;47.448;7.692;2022-12-07T03:57:10;3.60;99.90
19516;DHT22;9901;47.448;7.692;2022-12-07T03:59:37;3.60;99.90
19516;DHT22;9901;47.448;7.692;2022-12-07T04:02:05;3.50;99.90
19516;DHT22;9901;47.448;7.692;2022-12-07T04:04:32;3.50;99.90
19516;DHT22;9901;47.448;7.692;2022-12-07T04:06:58;3.50;99.90
19516;DHT22;9901;47.448;7.692;2022-12-07T04:09:25;3.50;99.90
19516;DHT22;9901;47.448;7.692;2022-12-07T04:11:51;3.50;99.90
19516;DHT22;9901;47.448;7.692;2022-12-07T04:14:16;3.50;99.90
19516;DHT22;9901;47.448;7.692;2022-12-07T04:16:51;3.50;99.90
19516;DHT22;9901;47.448;7.692;2022-12-07T04:19:18;3.50;99.90
19516;DHT22;9901;47.448;7.692;2022-12-07T04:21:44;3.40;99.90
19516;DHT22;9901;47.448;7.692;2022-12-07T04:24:11;3.40;99.90
19516;DHT22;9901;47.448;7.692;2022-12-07T04:26:40;3.50;99.90
19516;DHT22;9901;47.448;7.692;2022-12-07T04:29:06;3.40;99.90
19516;DHT22;9901;47.448;7.692;2022-12-07T04:31:32;3.50;99.90
19516;DHT22;9901;47.448;7.692;2022-12-07T04:33:57;3.50;99.90
19516;DHT22;9901;47.448;7.692;2022-12-07T04:36:23;3.40;99.90
19516;DHT22;9901;47.448;7.692;2022-12-07T04:38:49;3.50;99.90
19516;DHT22;9901;47.448;7.692;2022-12-07T04:41:15;3.40;99.90
19516;DHT22;9901;47.448;7.692;2022-12-07T04:43:41;3.50;99.90
19516;DHT22;9901;47.448;7.692;2022-12-07T04:46:06;3.40;99.90
19516;DHT22;9901;47.448;7.692;2022-12-07T04:50:58;3.40;99.90
19516;DHT22;9901;47.448;7.692;2022-12-07T04:53:24;3.40;99.90
19516;DHT22;9901;47.448;7.692;2022-12-07T04:55:50;3.40;99.90
19516;DHT22;9901;47.448;7.692;2022-12-07T04:58:15;3.40;99.90
19516;DHT22;9901;47.448;7.692;2022-12-07T05:00:44;3.40;99.90
19516;DHT22;9901;47.448;7.692;2022-12-07T05:03:10;3.30;99.90
19516;DHT22;9901;47.448;7.692;2022-12-07T05:05:36;3.40;99.90
19516;DHT22;9901;47.448;7.692;2022-12-07T05:10:31;3.30;99.90
19516;DHT22;9901;47.448;7.692;2022-12-07T05:27:33;3.20;99.90
19516;DHT22;9901;47.448;7.692;2022-12-07T05:29:59;3.20;99.90
19516;DHT22;9901;47.448;7.692;2022-12-07T05:32:25;3.30;99.90
19516;DHT22;9901;47.448;7.692;2022-12-07T05:34:51;3.20;99.90
19516;DHT22;9901;47.448;7.692;2022-12-07T05:37:16;3.30;99.90
19516;DHT22;9901;47.448;7.692;2022-12-07T05:39:42;3.30;99.90
19516;DHT22;9901;47.448;7.692;2022-12-07T05:42:10;3.30;99.90
19516;DHT22;9901;47.448;7.692;2022-12-07T05:44:44;3.30;99.90
19516;DHT22;9901;47.448;7.692;2022-12-07T05:49:39;3.30;99.90
19516;DHT22;9901;47.448;7.692;2022-12-07T05:54:31;3.30;99.90
19516;DHT22;9901;47.448;7.692;2022-12-07T05:56:57;3.30;99.90
19516;DHT22;9901;47.448;7.692;2022-12-07T05:59:24;3.30;99.90
19516;DHT22;9901;47.448;7.692;2022-12-07T06:01:52;3.30;99.90
19516;DHT22;9901;47.448;7.692;2022-12-07T06:04:19;3.40;99.90
19516;DHT22;9901;47.448;7.692;2022-12-07T06:06:46;3.30;99.90
19516;DHT22;9901;47.448;7.692;2022-12-07T06:09:12;3.40;99.90
19516;DHT22;9901;47.448;7.692;2022-12-07T06:11:39;3.30;99.90
19516;DHT22;9901;47.448;7.692;2022-12-07T06:16:49;3.40;99.90
19516;DHT22;9901;47.448;7.692;2022-12-07T06:19:18;3.40;99.90
19516;DHT22;9901;47.448;7.692;2022-12-07T06:21:44;3.40;99.90
19516;DHT22;9901;47.448;7.692;2022-12-07T06:24:14;3.40;99.90
19516;DHT22;9901;47.448;7.692;2022-12-07T06:26:40;3.40;99.90
19516;DHT22;9901;47.448;7.692;2022-12-07T06:29:06;3.40;99.90
19516;DHT22;9901;47.448;7.692;2022-12-07T06:31:32;3.40;99.90
19516;DHT22;9901;47.448;7.692;2022-12-07T06:33:59;3.40;99.90
19516;DHT22;9901;47.448;7.692;2022-12-07T06:36:25;3.40;99.90
19516;DHT22;9901;47.448;7.692;2022-12-07T06:38:51;3.40;99.90
19516;DHT22;9901;47.448;7.692;2022-12-07T06:41:17;3.40;99.90
19516;DHT22;9901;47.448;7.692;2022-12-07T06:43:42;3.50;99.90
19516;DHT22;9901;47.448;7.692;2022-12-07T06:46:11;3.40;99.90
19516;DHT22;9901;47.448;7.692;2022-12-07T06:48:37;3.40;99.90
19516;DHT22;9901;47.448;7.692;2022-12-07T06:51:03;3.40;99.90
19516;DHT22;9901;47.448;7.692;2022-12-07T06:53:29;3.40;99.90
19516;DHT22;9901;47.448;7.692;2022-12-07T06:55:57;3.40;99.90
19516;DHT22;9901;47.448;7.692;2022-12-07T06:58:23;3.40;99.90
19516;DHT22;9901;47.448;7.692;2022-12-07T07:00:49;3.40;99.90
19516;DHT22;9901;47.448;7.692;2022-12-07T07:03:17;3.40;99.90
19516;DHT22;9901;47.448;7.692;2022-12-07T07:05:43;3.40;99.90
19516;DHT22;9901;47.448;7.692;2022-12-07T07:08:10;3.50;99.90
19516;DHT22;9901;47.448;7.692;2022-12-07T07:10:36;3.50;99.90
19516;DHT22;9901;47.448;7.692;2022-12-07T07:13:02;3.50;99.90
19516;DHT22;9901;47.448;7.692;2022-12-07T07:15:28;3.40;99.90
19516;DHT22;9901;47.448;7.692;2022-12-07T07:17:54;3.40;99.90
19516;DHT22;9901;47.448;7.692;2022-12-07T07:20:20;3.40;99.90
19516;DHT22;9901;47.448;7.692;2022-12-07T07:22:45;3.40;99.90
19516;DHT22;9901;47.448;7.692;2022-12-07T07:25:11;3.40;99.90
19516;DHT22;9901;47.448;7.692;2022-12-07T07:27:37;3.40;99.90
19516;DHT22;9901;47.448;7.692;2022-12-07T07:30:07;3.40;99.90
19516;DHT22;9901;47.448;7.692;2022-12-07T07:32:33;3.40;99.90
19516;DHT22;9901;47.448;7.692;2022-12-07T07:34:58;3.40;99.90
19516;DHT22;9901;47.448;7.692;2022-12-07T07:37:25;3.40;99.90
19516;DHT22;9901;47.448;7.692;2022-12-07T07:39:50;3.40;99.90
19516;DHT22;9901;47.448;7.692;2022-12-07T07:42:16;3.40;99.90
19516;DHT22;9901;47.448;7.692;2022-12-07T07:44:42;3.40;99.90
19516;DHT22;9901;47.448;7.692;2022-12-07T07:47:08;3.40;99.90
19516;DHT22;9901;47.448;7.692;2022-12-07T07:49:33;3.40;99.90
19516;DHT22;9901;47.448;7.692;2022-12-07T07:51:59;3.50;99.90
19516;DHT22;9901;47.448;7.692;2022-12-07T07:54:25;3.50;99.90
19516;DHT22;9901;47.448;7.692;2022-12-07T07:56:52;3.60;99.90
19516;DHT22;9901;47.448;7.692;2022-12-07T07:59:18;3.50;99.90
19516;DHT22;9901;47.448;7.692;2022-12-07T08:01:44;3.50;99.90
19516;DHT22;9901;47.448;7.692;2022-12-07T08:04:12;3.50;99.90
19516;DHT22;9901;47.448;7.692;2022-12-07T08:06:38;3.50;99.90
19516;DHT22;9901;47.448;7.692;2022-12-07T08:09:03;3.50;99.90
19516;DHT22;9901;47.448;7.692;2022-12-07T08:11:31;3.60;99.90
19516;DHT22;9901;47.448;7.692;2022-12-07T08:13:56;3.60;99.90
19516;DHT22;9901;47.448;7.692;2022-12-07T08:16:22;3.60;99.90
19516;DHT22;9901;47.448;7.692;2022-12-07T08:18:48;3.60;99.90
19516;DHT22;9901;47.448;7.692;2022-12-07T08:21:15;3.60;99.90
19516;DHT22;9901;47.448;7.692;2022-12-07T08:23:41;3.60;99.90
19516;DHT22;9901;47.448;7.692;2022-12-07T08:26:10;3.70;99.90
19516;DHT22;9901;47.448;7.692;2022-12-07T08:28:36;3.60;99.90
19516;DHT22;9901;47.448;7.692;2022-12-07T08:31:03;3.60;99.90
19516;DHT22;9901;47.448;7.692;2022-12-07T08:33:30;3.70;99.90
19516;DHT22;9901;47.448;7.692;2022-12-07T08:36:04;3.70;99.90
19516;DHT22;9901;47.448;7.692;2022-12-07T08:38:30;3.80;99.90
19516;DHT22;9901;47.448;7.692;2022-12-07T08:40:57;3.80;99.90
19516;DHT22;9901;47.448;7.692;2022-12-07T08:43:23;3.80;99.90
19516;DHT22;9901;47.448;7.692;2022-12-07T08:45:55;3.90;99.90
19516;DHT22;9901;47.448;7.692;2022-12-07T08:48:25;3.90;99.90
19516;DHT22;9901;47.448;7.692;2022-12-07T08:50:51;3.90;99.90
19516;DHT22;9901;47.448;7.692;2022-12-07T08:53:17;4.00;99.90
19516;DHT22;9901;47.448;7.692;2022-12-07T08:55:45;4.00;99.90
19516;DHT22;9901;47.448;7.692;2022-12-07T08:58:11;3.80;99.90
19516;DHT22;9901;47.448;7.692;2022-12-07T09:00:37;4.00;99.90
19516;DHT22;9901;47.448;7.692;2022-12-07T09:03:03;4.00;99.90
19516;DHT22;9901;47.448;7.692;2022-12-07T09:05:28;4.10;99.90
19516;DHT22;9901;47.448;7.692;2022-12-07T09:07:58;4.10;99.90
19516;DHT22;9901;47.448;7.692;2022-12-07T09:10:25;4.10;99.90
19516;DHT22;9901;47.448;7.692;2022-12-07T09:12:54;4.00;99.90
19516;DHT22;9901;47.448;7.692;2022-12-07T09:15:19;4.10;99.90
19516;DHT22;9901;47.448;7.692;2022-12-07T09:20:12;4.20;99.90
19516;DHT22;9901;47.448;7.692;2022-12-07T09:22:38;4.20;99.90
19516;DHT22;9901;47.448;7.692;2022-12-07T09:25:04;4.20;99.90
19516;DHT22;9901;47.448;7.692;2022-12-07T09:27:30;4.20;99.90
19516;DHT22;9901;47.448;7.692;2022-12-07T09:29:56;4.10;99.90
19516;DHT22;9901;47.448;7.692;2022-12-07T09:32:24;4.20;99.90
19516;DHT22;9901;47.448;7.692;2022-12-07T09:34:50;4.10;99.90
19516;DHT22;9901;47.448;7.692;2022-12-07T09:37:15;4.10;99.90
19516;DHT22;9901;47.448;7.692;2022-12-07T09:39:41;4.30;99.90
19516;DHT22;9901;47.448;7.692;2022-12-07T09:42:08;4.10;99.90
19516;DHT22;9901;47.448;7.692;2022-12-07T09:47:02;4.10;99.90
19516;DHT22;9901;47.448;7.692;2022-12-07T10:02:39;4.40;99.90
19516;DHT22;9901;47.448;7.692;2022-12-07T10:05:14;4.50;99.90
19516;DHT22;9901;47.448;7.692;2022-12-07T10:07:40;4.50;99.90
19516;DHT22;9901;47.448;7.692;2022-12-07T10:10:14;4.60;99.90
19516;DHT22;9901;47.448;7.692;2022-12-07T10:12:54;4.60;99.90
19516;DHT22;9901;47.448;7.692;2022-12-07T10:15:20;4.70;99.90
19516;DHT22;9901;47.448;7.692;2022-12-07T10:17:51;4.70;99.90
19516;DHT22;9901;47.448;7.692;2022-12-07T10:20:22;4.90;99.90
19516;DHT22;9901;47.448;7.692;2022-12-07T10:23:00;4.80;99.90
19516;DHT22;9901;47.448;7.692;2022-12-07T10:25:35;4.80;99.90
19516;DHT22;9901;47.448;7.692;2022-12-07T10:30:46;4.70;99.90
19516;DHT22;9901;47.448;7.692;2022-12-07T10:33:38;4.90;99.90
19516;DHT22;9901;47.448;7.692;2022-12-07T10:36:34;5.30;99.90
19516;DHT22;9901;47.448;7.692;2022-12-07T10:39:16;5.40;99.90
19516;DHT22;9901;47.448;7.692;2022-12-07T10:42:00;5.50;99.90
19516;DHT22;9901;47.448;7.692;2022-12-07T10:44:31;5.50;99.90
19516;DHT22;9901;47.448;7.692;2022-12-07T10:47:51;5.40;99.90
19516;DHT22;9901;47.448;7.692;2022-12-07T10:53:44;5.20;99.90
19516;DHT22;9901;47.448;7.692;2022-12-07T10:59:18;5.50;99.90
19516;DHT22;9901;47.448;7.692;2022-12-07T11:07:12;5.30;99.90
19516;DHT22;9901;47.448;7.692;2022-12-07T11:18:19;5.60;99.90
19516;DHT22;9901;47.448;7.692;2022-12-07T11:23:56;5.50;99.90
19516;DHT22;9901;47.448;7.692;2022-12-07T11:26:34;5.40;99.90
19516;DHT22;9901;47.448;7.692;2022-12-07T11:31:54;5.20;99.90
19516;DHT22;9901;47.448;7.692;2022-12-07T11:34:53;5.20;99.90
19516;DHT22;9901;47.448;7.692;2022-12-07T11:37:28;5.10;99.90
19516;DHT22;9901;47.448;7.692;2022-12-07T11:42:42;5.60;99.90
19516;DHT22;9901;47.448;7.692;2022-12-07T11:45:15;6.10;99.90
19516;DHT22;9901;47.448;7.692;2022-12-07T11:48:04;6.50;99.90
19516;DHT22;9901;47.448;7.692;2022-12-07T11:50:36;6.90;99.90
19516;DHT22;9901;47.448;7.692;2022-12-07T11:53:14;7.20;99.90
19516;DHT22;9901;47.448;7.692;2022-12-07T12:06:36;8.60;99.90
19516;DHT22;9901;47.448;7.692;2022-12-07T12:09:15;8.70;99.90
19516;DHT22;9901;47.448;7.692;2022-12-07T12:20:26;9.00;99.90
19516;DHT22;9901;47.448;7.692;2022-12-07T12:25:57;8.60;99.90
19516;DHT22;9901;47.448;7.692;2022-12-07T12:33:35;8.20;99.90
19516;DHT22;9901;47.448;7.692;2022-12-07T12:46:46;8.40;99.90
19516;DHT22;9901;47.448;7.692;2022-12-07T12:51:44;8.20;99.90
19516;DHT22;9901;47.448;7.692;2022-12-07T12:59:22;8.00;99.90
19516;DHT22;9901;47.448;7.692;2022-12-07T13:01:50;8.10;99.90
19516;DHT22;9901;47.448;7.692;2022-12-07T13:06:47;8.30;99.90
19516;DHT22;9901;47.448;7.692;2022-12-07T13:09:31;8.40;99.90
19516;DHT22;9901;47.448;7.692;2022-12-07T13:12:04;8.20;99.90
19516;DHT22;9901;47.448;7.692;2022-12-07T13:17:07;8.60;99.90
19516;DHT22;9901;47.448;7.692;2022-12-07T13:27:36;9.60;99.90
19516;DHT22;9901;47.448;7.692;2022-12-07T13:30:18;9.90;99.90
19516;DHT22;9901;47.448;7.692;2022-12-07T13:32:55;10.30;99.90
19516;DHT22;9901;47.448;7.692;2022-12-07T13:35:47;10.70;99.90
19516;DHT22;9901;47.448;7.692;2022-12-07T13:38:30;11.10;99.90
19516;DHT22;9901;47.448;7.692;2022-12-07T13:41:13;10.80;99.90
19516;DHT22;9901;47.448;7.692;2022-12-07T13:43:48;9.90;99.90
19516;DHT22;9901;47.448;7.692;2022-12-07T13:46:17;9.10;99.90
19516;DHT22;9901;47.448;7.692;2022-12-07T13:48:47;8.60;99.90
19516;DHT22;9901;47.448;7.692;2022-12-07T13:51:22;8.10;99.90
19516;DHT22;9901;47.448;7.692;2022-12-07T13:53:50;7.70;99.90
19516;DHT22;9901;47.448;7.692;2022-12-07T13:56:16;7.50;99.90
19516;DHT22;9901;47.448;7.692;2022-12-07T13:58:42;7.20;99.90
19516;DHT22;9901;47.448;7.692;2022-12-07T14:01:09;7.00;99.90
19516;DHT22;9901;47.448;7.692;2022-12-07T14:03:37;6.80;99.90
19516;DHT22;9901;47.448;7.692;2022-12-07T14:06:27;6.60;99.90
19516;DHT22;9901;47.448;7.692;2022-12-07T14:09:29;6.50;99.90
19516;DHT22;9901;47.448;7.692;2022-12-07T14:11:56;6.40;99.90
19516;DHT22;9901;47.448;7.692;2022-12-07T14:14:26;6.40;99.90
19516;DHT22;9901;47.448;7.692;2022-12-07T14:16:58;6.40;99.90
19516;DHT22;9901;47.448;7.692;2022-12-07T14:19:53;6.30;99.90
19516;DHT22;9901;47.448;7.692;2022-12-07T14:22:37;6.30;99.90
19516;DHT22;9901;47.448;7.692;2022-12-07T14:27:38;6.10;99.90
19516;DHT22;9901;47.448;7.692;2022-12-07T14:30:05;6.00;99.90
19516;DHT22;9901;47.448;7.692;2022-12-07T14:32:32;5.90;99.90
19516;DHT22;9901;47.448;7.692;2022-12-07T14:35:11;5.90;99.90
19516;DHT22;9901;47.448;7.692;2022-12-07T14:38:12;5.80;99.90
19516;DHT22;9901;47.448;7.692;2022-12-07T14:40:38;5.80;99.90
19516;DHT22;9901;47.448;7.692;2022-12-07T14:43:12;5.80;99.90
19516;DHT22;9901;47.448;7.692;2022-12-07T14:45:39;5.80;99.90
19516;DHT22;9901;47.448;7.692;2022-12-07T14:48:05;5.80;99.90
19516;DHT22;9901;47.448;7.692;2022-12-07T14:50:37;5.90;99.90
19516;DHT22;9901;47.448;7.692;2022-12-07T14:53:14;5.70;99.90
19516;DHT22;9901;47.448;7.692;2022-12-07T14:55:40;5.70;99.90
19516;DHT22;9901;47.448;7.692;2022-12-07T14:58:12;5.70;99.90
19516;DHT22;9901;47.448;7.692;2022-12-07T15:00:42;5.50;99.90
19516;DHT22;9901;47.448;7.692;2022-12-07T15:03:07;5.40;99.90
19516;DHT22;9901;47.448;7.692;2022-12-07T15:05:34;5.40;99.90
19516;DHT22;9901;47.448;7.692;2022-12-07T15:08:00;5.30;99.90
19516;DHT22;9901;47.448;7.692;2022-12-07T15:10:28;5.30;99.90
19516;DHT22;9901;47.448;7.692;2022-12-07T15:12:58;5.10;99.90
19516;DHT22;9901;47.448;7.692;2022-12-07T15:15:44;5.20;99.90
19516;DHT22;9901;47.448;7.692;2022-12-07T15:18:09;5.10;99.90
19516;DHT22;9901;47.448;7.692;2022-12-07T15:20:35;5.10;99.90
19516;DHT22;9901;47.448;7.692;2022-12-07T15:23:01;5.00;99.90
19516;DHT22;9901;47.448;7.692;2022-12-07T15:25:27;5.00;99.90
19516;DHT22;9901;47.448;7.692;2022-12-07T15:27:52;4.90;99.90
19516;DHT22;9901;47.448;7.692;2022-12-07T15:30:18;4.80;99.90
19516;DHT22;9901;47.448;7.692;2022-12-07T15:32:44;4.70;99.90
19516;DHT22;9901;47.448;7.692;2022-12-07T15:35:09;4.70;99.90
19516;DHT22;9901;47.448;7.692;2022-12-07T15:37:35;4.60;99.90
19516;DHT22;9901;47.448;7.692;2022-12-07T15:40:01;4.50;99.90
19516;DHT22;9901;47.448;7.692;2022-12-07T15:42:27;4.50;99.90
19516;DHT22;9901;47.448;7.692;2022-12-07T15:44:53;4.50;99.90
19516;DHT22;9901;47.448;7.692;2022-12-07T15:47:38;4.50;99.90
19516;DHT22;9901;47.448;7.692;2022-12-07T15:50:06;4.40;99.90
19516;DHT22;9901;47.448;7.692;2022-12-07T15:52:33;4.20;99.90
19516;DHT22;9901;47.448;7.692;2022-12-07T15:54:59;4.20;99.90
19516;DHT22;9901;47.448;7.692;2022-12-07T15:57:26;4.10;99.90
19516;DHT22;9901;47.448;7.692;2022-12-07T15:59:52;4.00;99.90
19516;DHT22;9901;47.448;7.692;2022-12-07T16:02:19;3.90;99.90
19516;DHT22;9901;47.448;7.692;2022-12-07T16:04:44;3.90;99.90
19516;DHT22;9901;47.448;7.692;2022-12-07T16:07:10;3.90;99.90
19516;DHT22;9901;47.448;7.692;2022-12-07T16:09:37;3.90;99.90
19516;DHT22;9901;47.448;7.692;2022-12-07T16:12:03;3.90;99.90
19516;DHT22;9901;47.448;7.692;2022-12-07T16:14:29;3.90;99.90
19516;DHT22;9901;47.448;7.692;2022-12-07T16:16:57;3.90;99.90
19516;DHT22;9901;47.448;7.692;2022-12-07T16:19:23;3.80;99.90
19516;DHT22;9901;47.448;7.692;2022-12-07T16:21:48;3.70;99.90
19516;DHT22;9901;47.448;7.692;2022-12-07T16:24:14;3.60;99.90
19516;DHT22;9901;47.448;7.692;2022-12-07T16:26:40;3.50;99.90
19516;DHT22;9901;47.448;7.692;2022-12-07T16:29:06;3.50;99.90
19516;DHT22;9901;47.448;7.692;2022-12-07T16:31:32;3.50;99.90
19516;DHT22;9901;47.448;7.692;2022-12-07T16:33:59;3.60;99.90
19516;DHT22;9901;47.448;7.692;2022-12-07T16:36:34;3.60;99.90
19516;DHT22;9901;47.448;7.692;2022-12-07T16:39:00;3.60;99.90
19516;DHT22;9901;47.448;7.692;2022-12-07T16:41:26;3.50;99.90
19516;DHT22;9901;47.448;7.692;2022-12-07T16:43:54;3.50;99.90
19516;DHT22;9901;47.448;7.692;2022-12-07T16:46:57;3.50;99.90
19516;DHT22;9901;47.448;7.692;2022-12-07T16:49:24;3.50;99.90
19516;DHT22;9901;47.448;7.692;2022-12-07T16:51:50;3.50;99.90
19516;DHT22;9901;47.448;7.692;2022-12-07T16:54:16;3.50;99.90
19516;DHT22;9901;47.448;7.692;2022-12-07T16:56:42;3.40;99.90
19516;DHT22;9901;47.448;7.692;2022-12-07T16:59:08;3.40;99.90
19516;DHT22;9901;47.448;7.692;2022-12-07T17:01:37;3.20;99.90
19516;DHT22;9901;47.448;7.692;2022-12-07T17:04:05;3.30;99.90
19516;DHT22;9901;47.448;7.692;2022-12-07T17:06:31;3.30;99.90
19516;DHT22;9901;47.448;7.692;2022-12-07T17:08:57;3.40;99.90
19516;DHT22;9901;47.448;7.692;2022-12-07T17:11:32;3.30;99.90
19516;DHT22;9901;47.448;7.692;2022-12-07T17:13:58;3.30;99.90
19516;DHT22;9901;47.448;7.692;2022-12-07T17:16:43;3.30;99.90
19516;DHT22;9901;47.448;7.692;2022-12-07T17:19:14;3.20;99.90
19516;DHT22;9901;47.448;7.692;2022-12-07T17:21:41;3.20;99.90
19516;DHT22;9901;47.448;7.692;2022-12-07T17:24:09;3.20;99.90
19516;DHT22;9901;47.448;7.692;2022-12-07T17:26:36;3.10;99.90
19516;DHT22;9901;47.448;7.692;2022-12-07T17:29:04;3.20;99.90
19516;DHT22;9901;47.448;7.692;2022-12-07T17:31:30;3.10;99.90
19516;DHT22;9901;47.448;7.692;2022-12-07T17:34:00;3.10;99.90
19516;DHT22;9901;47.448;7.692;2022-12-07T17:36:29;3.10;99.90
19516;DHT22;9901;47.448;7.692;2022-12-07T17:38:56;3.10;99.90
19516;DHT22;9901;47.448;7.692;2022-12-07T17:41:28;3.10;99.90
19516;DHT22;9901;47.448;7.692;2022-12-07T17:44:17;3.00;99.90
19516;DHT22;9901;47.448;7.692;2022-12-07T17:46:44;3.00;99.90
19516;DHT22;9901;47.448;7.692;2022-12-07T17:49:10;2.90;99.90
19516;DHT22;9901;47.448;7.692;2022-12-07T17:51:36;2.90;99.90
19516;DHT22;9901;47.448;7.692;2022-12-07T17:54:21;2.90;99.90
19516;DHT22;9901;47.448;7.692;2022-12-07T17:56:47;2.90;99.90
19516;DHT22;9901;47.448;7.692;2022-12-07T17:59:13;2.90;99.90
19516;DHT22;9901;47.448;7.692;2022-12-07T18:01:40;2.90;99.90
19516;DHT22;9901;47.448;7.692;2022-12-07T18:04:06;2.90;99.90
19516;DHT22;9901;47.448;7.692;2022-12-07T18:06:33;2.90;99.90
19516;DHT22;9901;47.448;7.692;2022-12-07T18:08:59;2.80;99.90
19516;DHT22;9901;47.448;7.692;2022-12-07T18:11:32;2.80;99.90
19516;DHT22;9901;47.448;7.692;2022-12-07T18:13:59;2.80;99.90
19516;DHT22;9901;47.448;7.692;2022-12-07T18:16:27;2.90;99.90
19516;DHT22;9901;47.448;7.692;2022-12-07T18:18:54;2.80;99.90
19516;DHT22;9901;47.448;7.692;2022-12-07T18:21:24;2.90;99.90
19516;DHT22;9901;47.448;7.692;2022-12-07T18:23:52;2.90;99.90
19516;DHT22;9901;47.448;7.692;2022-12-07T18:26:19;2.90;99.90
19516;DHT22;9901;47.448;7.692;2022-12-07T18:28:46;2.70;99.90
19516;DHT22;9901;47.448;7.692;2022-12-07T18:31:14;2.80;99.90
19516;DHT22;9901;47.448;7.692;2022-12-07T18:33:41;2.70;99.90
19516;DHT22;9901;47.448;7.692;2022-12-07T18:36:08;2.70;99.90
19516;DHT22;9901;47.448;7.692;2022-12-07T18:38:34;2.60;99.90
19516;DHT22;9901;47.448;7.692;2022-12-07T18:41:02;2.60;99.90
19516;DHT22;9901;47.448;7.692;2022-12-07T18:43:28;2.70;99.90
19516;DHT22;9901;47.448;7.692;2022-12-07T18:45:54;2.70;99.90
19516;DHT22;9901;47.448;7.692;2022-12-07T18:48:21;2.70;99.90
19516;DHT22;9901;47.448;7.692;2022-12-07T18:51:01;2.70;99.90
19516;DHT22;9901;47.448;7.692;2022-12-07T18:53:27;2.70;99.90
19516;DHT22;9901;47.448;7.692;2022-12-07T18:56:04;2.60;99.90
19516;DHT22;9901;47.448;7.692;2022-12-07T18:58:31;2.50;99.90
19516;DHT22;9901;47.448;7.692;2022-12-07T19:00:57;2.50;99.90
19516;DHT22;9901;47.448;7.692;2022-12-07T19:03:24;2.50;99.90
19516;DHT22;9901;47.448;7.692;2022-12-07T19:05:50;2.50;99.90
19516;DHT22;9901;47.448;7.692;2022-12-07T19:08:16;2.40;99.90